createdAt,value
2023-04-02T00:00:03.887Z,11.13
2023-04-02T00:02:56.463Z,8.05
2023-04-02T00:08:03.807Z,7.68
2023-04-02T00:10:32.771Z,7.25
2023-04-02T00:13:05.135Z,13.00
2023-04-02T00:15:32.577Z,7.45
2023-04-02T00:18:00.657Z,8.25
2023-04-02T00:20:30.033Z,11.45
2023-04-02T00:22:57.086Z,9.48
2023-04-02T00:25:27.034Z,8.63
2023-04-02T00:27:54.584Z,12.13
2023-04-02T00:30:21.858Z,8.45
2023-04-02T00:32:49.368Z,7.72
2023-04-02T00:35:28.449Z,8.40
2023-04-02T00:37:56.504Z,8.15
2023-04-02T00:40:29.329Z,8.13
2023-04-02T00:42:59.779Z,9.70
2023-04-02T00:45:30.947Z,7.40
2023-04-02T00:48:01.166Z,9.45
2023-04-02T00:50:34.999Z,7.53
2023-04-02T00:53:10.577Z,16.48
2023-04-02T00:55:40.438Z,9.63
2023-04-02T00:58:22.203Z,9.02
2023-04-02T01:00:50.844Z,10.60
2023-04-02T01:03:17.539Z,11.98
2023-04-02T01:05:51.315Z,11.18
2023-04-02T01:08:31.289Z,9.70
2023-04-02T01:11:17.011Z,8.98
2023-04-02T01:13:56.973Z,9.05
2023-04-02T01:16:27.293Z,10.10
2023-04-02T01:19:10.020Z,10.30
2023-04-02T01:21:46.079Z,9.35
2023-04-02T01:24:14.555Z,10.30
2023-04-02T01:26:58.741Z,11.07
2023-04-02T01:29:45.496Z,10.27
2023-04-02T01:32:15.581Z,9.73
2023-04-02T01:34:45.783Z,9.20
2023-04-02T01:37:32.357Z,9.15
2023-04-02T01:40:31.215Z,8.52
2023-04-02T01:43:28.447Z,6.63
2023-04-02T01:45:58.623Z,8.38
2023-04-02T01:48:30.146Z,8.52
2023-04-02T01:50:59.387Z,9.77
2023-04-02T01:53:29.681Z,9.13
2023-04-02T01:56:01.924Z,11.23
2023-04-02T01:58:32.060Z,12.05
2023-04-02T02:01:19.238Z,11.80
2023-04-02T02:03:50.825Z,8.10
2023-04-02T02:06:19.683Z,9.50
2023-04-02T02:09:03.901Z,11.30
2023-04-02T02:11:33.849Z,11.20
2023-04-02T02:14:05.554Z,11.73
2023-04-02T02:16:41.749Z,10.98
2023-04-02T02:19:17.385Z,11.57
2023-04-02T02:21:48.824Z,8.88
2023-04-02T02:24:31.665Z,12.18
2023-04-02T02:27:21.912Z,11.50
2023-04-02T02:30:02.003Z,10.70
2023-04-02T02:32:32.810Z,10.77
2023-04-02T02:35:12.783Z,10.73
2023-04-02T02:37:44.926Z,10.68
2023-04-02T02:40:24.173Z,10.65
2023-04-02T02:43:08.659Z,10.30
2023-04-02T02:45:38.914Z,9.43
2023-04-02T02:48:12.817Z,10.52
2023-04-02T02:50:41.248Z,9.82
2023-04-02T02:53:21.377Z,8.30
2023-04-02T02:55:54.272Z,10.25
2023-04-02T02:58:27.956Z,9.60
2023-04-02T03:01:05.259Z,10.68
2023-04-02T03:03:35.164Z,10.27
2023-04-02T03:06:09.135Z,10.93
2023-04-02T03:09:09.453Z,9.98
2023-04-02T03:11:49.723Z,9.20
2023-04-02T03:14:35.524Z,9.45
2023-04-02T03:17:27.913Z,10.53
2023-04-02T03:20:11.036Z,9.95
2023-04-02T03:22:47.326Z,10.13
2023-04-02T03:25:17.174Z,11.95
2023-04-02T03:27:47.431Z,12.60
2023-04-02T03:30:34.768Z,12.68
2023-04-02T03:33:13.711Z,13.25
2023-04-02T03:35:47.198Z,10.98
2023-04-02T03:41:02.186Z,12.10
2023-04-02T03:43:42.338Z,11.60
2023-04-02T03:46:34.201Z,12.50
2023-04-02T03:49:11.466Z,12.30
2023-04-02T03:51:47.098Z,13.70
2023-04-02T03:54:16.776Z,12.38
2023-04-02T03:56:47.492Z,12.15
2023-04-02T03:59:31.977Z,12.23
2023-04-02T04:02:33.694Z,12.43
2023-04-02T04:05:03.581Z,11.38
2023-04-02T04:07:41.538Z,11.95
2023-04-02T04:10:17.097Z,12.55
2023-04-02T04:12:47.784Z,12.60
2023-04-02T04:15:33.468Z,13.18
2023-04-02T04:18:21.589Z,11.68
2023-04-02T04:20:58.420Z,9.50
2023-04-02T04:23:41.182Z,9.13
2023-04-02T04:26:36.244Z,11.88
2023-04-02T04:29:33.160Z,10.68
2023-04-02T04:32:34.148Z,9.25
2023-04-02T04:35:26.700Z,10.32
2023-04-02T04:38:12.113Z,8.50
2023-04-02T04:40:54.351Z,10.10
2023-04-02T04:43:51.041Z,10.05
2023-04-02T04:46:28.660Z,8.80
2023-04-02T04:49:09.964Z,9.95
2023-04-02T04:52:01.830Z,10.07
2023-04-02T04:54:29.933Z,9.52
2023-04-02T04:57:03.127Z,8.13
2023-04-02T04:59:43.049Z,9.27
2023-04-02T05:02:16.526Z,10.65
2023-04-02T05:04:50.114Z,10.50
2023-04-02T05:07:26.438Z,11.77
2023-04-02T05:10:00.787Z,11.65
2023-04-02T05:12:38.341Z,11.48
2023-04-02T05:15:27.911Z,12.52
2023-04-02T05:18:21.198Z,11.98
2023-04-02T05:20:54.705Z,10.02
2023-04-02T05:23:28.120Z,11.15
2023-04-02T05:26:06.931Z,10.68
2023-04-02T05:28:39.268Z,11.82
2023-04-02T05:31:15.058Z,11.60
2023-04-02T05:33:46.434Z,12.60
2023-04-02T05:36:22.405Z,12.77
2023-04-02T05:38:54.548Z,10.20
2023-04-02T05:41:32.712Z,12.32
2023-04-02T05:44:08.183Z,11.75
2023-04-02T05:46:43.545Z,13.55
2023-04-02T05:49:21.538Z,12.52
2023-04-02T05:51:52.559Z,13.77
2023-04-02T05:54:27.116Z,16.30
2023-04-02T05:57:03.029Z,10.40
2023-04-02T05:59:34.286Z,12.57
2023-04-02T06:02:19.945Z,12.50
2023-04-02T06:04:55.640Z,10.95
2023-04-02T06:07:33.163Z,10.25
2023-04-02T06:10:00.647Z,10.55
2023-04-02T06:12:30.882Z,10.13
2023-04-02T06:15:00.193Z,10.57
2023-04-02T06:17:30.631Z,10.70
2023-04-02T06:20:01.213Z,11.43
2023-04-02T06:22:39.572Z,12.60
2023-04-02T06:25:28.005Z,11.25
2023-04-02T06:27:58.541Z,11.75
2023-04-02T06:30:33.246Z,11.52
2023-04-02T06:33:01.238Z,12.55
2023-04-02T06:35:29.354Z,10.43
2023-04-02T06:38:03.546Z,10.40
2023-04-02T06:40:51.459Z,8.27
2023-04-02T06:44:06.257Z,9.20
2023-04-02T06:47:20.689Z,9.13
2023-04-02T06:49:56.859Z,19.85
2023-04-02T06:52:24.660Z,7.55
2023-04-02T06:54:51.602Z,7.40
2023-04-02T06:57:18.361Z,8.52
2023-04-02T06:59:47.829Z,8.25
2023-04-02T07:02:30.899Z,7.35
2023-04-02T07:05:04.142Z,6.25
2023-04-02T07:07:32.755Z,9.43
2023-04-02T07:10:03.038Z,6.50
2023-04-02T07:12:29.955Z,5.55
2023-04-02T07:14:56.822Z,9.15
2023-04-02T07:17:24.259Z,6.35
2023-04-02T07:19:50.994Z,4.80
2023-04-02T07:22:20.808Z,5.82
2023-04-02T07:24:54.290Z,4.63
2023-04-02T07:27:20.985Z,5.22
2023-04-02T07:29:47.760Z,4.53
2023-04-02T07:32:14.606Z,3.75
2023-04-02T07:34:41.796Z,7.32
2023-04-02T07:37:13.117Z,4.00
2023-04-02T07:39:40.767Z,4.30
2023-04-02T07:42:08.053Z,4.03
2023-04-02T07:44:34.903Z,4.15
2023-04-02T07:47:01.700Z,3.83
2023-04-02T07:49:29.271Z,2.90
2023-04-02T07:51:56.551Z,3.08
2023-04-02T07:54:23.197Z,3.47
2023-04-02T07:56:49.831Z,3.28
2023-04-02T07:59:17.289Z,2.78
2023-04-02T08:01:44.057Z,2.67
2023-04-02T08:04:20.012Z,2.90
2023-04-02T08:06:48.081Z,4.38
2023-04-02T08:09:18.181Z,2.72
2023-04-02T08:11:46.762Z,3.00
2023-04-02T08:14:14.115Z,2.63
2023-04-02T08:16:53.213Z,3.78
2023-04-02T08:19:20.659Z,2.38
2023-04-02T08:21:52.854Z,2.60
2023-04-02T08:24:19.676Z,3.15
2023-04-02T08:27:01.572Z,6.05
2023-04-02T08:29:32.204Z,3.45
2023-04-02T08:32:00.963Z,5.65
2023-04-02T08:34:28.455Z,3.97
2023-04-02T08:36:59.131Z,1.80
2023-04-02T08:39:29.342Z,2.83
2023-04-02T08:42:06.094Z,2.45
2023-04-02T08:45:23.666Z,8.40
2023-04-02T08:47:56.667Z,2.47
2023-04-02T08:50:39.535Z,2.78
2023-04-02T08:53:14.236Z,2.60
2023-04-02T08:55:55.728Z,2.70
2023-04-02T08:58:37.789Z,2.03
2023-04-02T09:01:08.216Z,2.40
2023-04-02T09:03:52.840Z,2.30
2023-04-02T09:06:21.972Z,2.58
2023-04-02T09:08:51.742Z,2.15
2023-04-02T09:11:21.637Z,2.10
2023-04-02T09:14:00.680Z,2.70
2023-04-02T09:16:45.124Z,2.70
2023-04-02T09:19:26.992Z,2.15
2023-04-02T09:22:31.719Z,6.68
2023-04-02T09:25:06.511Z,3.20
2023-04-02T09:27:36.682Z,25.13
2023-04-02T09:30:21.722Z,4.47
2023-04-02T09:32:49.930Z,2.65
2023-04-02T09:35:36.591Z,8.38
2023-04-02T09:38:37.515Z,2.83
2023-04-02T09:41:06.741Z,3.85
2023-04-02T09:43:38.447Z,3.80
2023-04-02T09:46:24.400Z,2.35
2023-04-02T09:48:59.324Z,2.90
2023-04-02T09:51:29.814Z,2.70
2023-04-02T09:54:02.502Z,2.63
2023-04-02T09:56:34.863Z,3.08
2023-04-02T09:59:06.050Z,2.92
2023-04-02T10:01:34.197Z,4.72
2023-04-02T10:04:03.509Z,8.52
2023-04-02T10:06:31.855Z,2.92
2023-04-02T10:08:58.664Z,3.00
2023-04-02T10:11:46.293Z,3.70
2023-04-02T10:14:24.128Z,2.72
2023-04-02T10:16:58.052Z,2.63
2023-04-02T10:19:31.426Z,2.33
2023-04-02T10:22:00.833Z,2.63
2023-04-02T10:24:28.776Z,3.33
2023-04-02T10:27:42.846Z,6.43
2023-04-02T10:30:10.287Z,2.70
2023-04-02T10:32:45.954Z,3.40
2023-04-02T10:35:24.120Z,2.97
2023-04-02T10:38:02.957Z,2.85
2023-04-02T10:41:01.541Z,6.50
2023-04-02T10:43:31.375Z,2.85
2023-04-02T10:46:12.648Z,3.22
2023-04-02T10:49:01.000Z,3.20
2023-04-02T10:51:34.108Z,2.97
2023-04-02T10:54:10.057Z,2.30
2023-04-02T10:56:47.790Z,2.28
2023-04-02T10:59:23.264Z,2.70
2023-04-02T11:01:52.140Z,3.27
2023-04-02T11:04:38.315Z,2.60
2023-04-02T11:07:17.217Z,3.10
2023-04-02T11:09:48.662Z,2.95
2023-04-02T11:12:42.039Z,2.53
2023-04-02T11:15:18.047Z,2.80
2023-04-02T11:17:45.851Z,2.72
2023-04-02T11:20:49.748Z,2.50
2023-04-02T11:23:22.355Z,2.50
2023-04-02T11:25:49.371Z,2.67
2023-04-02T11:28:30.834Z,2.78
2023-04-02T11:30:58.148Z,2.55
2023-04-02T11:33:38.092Z,3.92
2023-04-02T11:36:43.978Z,2.58
2023-04-02T11:39:17.420Z,5.43
2023-04-02T11:42:01.084Z,2.70
2023-04-02T11:44:28.039Z,2.92
2023-04-02T11:47:21.979Z,3.63
2023-04-02T11:49:55.361Z,2.70
2023-04-02T11:52:35.131Z,2.53
2023-04-02T11:55:27.526Z,2.83
2023-04-02T11:58:22.779Z,13.68
2023-04-02T12:01:18.717Z,2.65
2023-04-02T12:04:23.013Z,6.50
2023-04-02T12:07:12.839Z,3.20
2023-04-02T12:09:55.153Z,2.63
2023-04-02T12:12:39.407Z,2.50
2023-04-02T12:15:27.634Z,2.20
2023-04-02T12:18:06.240Z,1.73
2023-04-02T12:20:34.738Z,2.08
2023-04-02T12:23:02.200Z,3.75
2023-04-02T12:25:40.022Z,2.00
2023-04-02T12:28:09.758Z,2.83
2023-04-02T12:30:37.970Z,3.08
2023-04-02T12:33:20.362Z,2.20
2023-04-02T12:35:53.435Z,1.90
2023-04-02T12:38:24.484Z,2.00
2023-04-02T12:41:05.157Z,2.25
2023-04-02T12:43:37.837Z,2.30
2023-04-02T12:46:06.766Z,2.35
2023-04-02T12:48:35.526Z,2.40
2023-04-02T12:51:04.600Z,2.15
2023-04-02T12:53:40.395Z,2.35
2023-04-02T12:56:11.155Z,3.72
2023-04-02T12:58:41.481Z,2.33
2023-04-02T13:01:27.667Z,2.42
2023-04-02T13:04:06.164Z,2.97
2023-04-02T13:06:35.242Z,2.20
2023-04-02T13:09:05.035Z,4.45
2023-04-02T13:11:37.257Z,2.40
2023-04-02T13:14:06.325Z,3.53
2023-04-02T13:16:36.751Z,2.55
2023-04-02T13:19:17.434Z,2.00
2023-04-02T13:21:45.386Z,2.47
2023-04-02T13:24:21.601Z,2.10
2023-04-02T13:26:49.824Z,2.53
2023-04-02T13:29:28.655Z,2.38
2023-04-02T13:31:59.976Z,2.38
2023-04-02T13:34:27.500Z,2.40
2023-04-02T13:36:56.145Z,2.58
2023-04-02T13:39:24.141Z,2.78
2023-04-02T13:41:59.607Z,2.63
2023-04-02T13:44:29.984Z,2.40
2023-04-02T13:46:57.860Z,2.55
2023-04-02T13:49:25.425Z,2.60
2023-04-02T13:51:57.823Z,2.80
2023-04-02T13:54:37.350Z,2.50
2023-04-02T13:57:04.323Z,2.40
2023-04-02T13:59:31.456Z,2.83
2023-04-02T14:02:06.740Z,2.47
2023-04-02T14:04:38.863Z,2.83
2023-04-02T14:07:24.569Z,2.30
2023-04-02T14:10:12.710Z,2.40
2023-04-02T14:12:45.446Z,3.05
2023-04-02T14:15:45.591Z,3.40
2023-04-02T14:18:30.032Z,2.72
2023-04-02T14:23:53.854Z,2.85
2023-04-02T14:26:49.148Z,1.92
2023-04-02T14:29:44.913Z,2.47
2023-04-02T14:32:17.580Z,2.08
2023-04-02T14:34:52.963Z,5.22
2023-04-02T14:37:38.409Z,2.20
2023-04-02T14:40:27.340Z,2.60
2023-04-02T14:43:07.189Z,2.20
2023-04-02T14:45:58.570Z,3.58
2023-04-02T14:48:45.184Z,2.10
2023-04-02T14:51:12.026Z,6.90
2023-04-02T14:53:50.567Z,3.25
2023-04-02T14:56:21.820Z,2.42
2023-04-02T14:59:07.602Z,2.28
2023-04-02T15:01:40.746Z,2.45
2023-04-02T15:04:14.180Z,2.53
2023-04-02T15:06:46.093Z,2.40
2023-04-02T15:09:27.396Z,1.52
2023-04-02T15:11:59.941Z,1.70
2023-04-02T15:14:48.389Z,2.20
2023-04-02T15:17:15.318Z,3.45
2023-04-02T15:19:43.137Z,1.90
2023-04-02T15:22:28.551Z,2.10
2023-04-02T15:25:11.756Z,2.30
2023-04-02T15:27:57.141Z,1.83
2023-04-02T15:30:29.157Z,2.50
2023-04-02T15:33:24.451Z,2.50
2023-04-02T15:36:16.724Z,2.25
2023-04-02T15:38:57.739Z,2.05
2023-04-02T15:41:27.503Z,2.20
2023-04-02T15:44:15.516Z,2.47
2023-04-02T15:47:10.102Z,2.17
2023-04-02T15:49:51.867Z,2.30
2023-04-02T15:52:44.646Z,2.28
2023-04-02T15:55:25.878Z,1.92
2023-04-02T15:58:20.879Z,1.83
2023-04-02T16:01:04.272Z,2.17
2023-04-02T16:04:00.400Z,2.00
2023-04-02T16:06:32.545Z,2.13
2023-04-02T16:09:07.233Z,1.90
2023-04-02T16:11:34.335Z,2.60
2023-04-02T16:14:33.181Z,2.08
2023-04-02T16:17:23.864Z,1.90
2023-04-02T16:20:28.677Z,1.83
2023-04-02T16:23:21.042Z,2.08
2023-04-02T16:25:56.525Z,2.08
2023-04-02T16:29:00.337Z,2.10
2023-04-02T16:31:46.040Z,1.93
2023-04-02T16:34:22.069Z,2.00
2023-04-02T16:37:13.988Z,1.90
2023-04-02T16:39:52.792Z,2.05
2023-04-02T16:42:34.040Z,2.10
2023-04-02T16:45:19.446Z,2.47
2023-04-02T16:48:16.215Z,2.00
2023-04-02T16:51:19.974Z,2.05
2023-04-02T16:54:05.879Z,2.30
2023-04-02T16:56:56.401Z,2.30
2023-04-02T16:59:51.127Z,2.28
2023-04-02T17:02:43.316Z,2.15
2023-04-02T17:05:36.092Z,2.10
2023-04-02T17:08:18.544Z,1.85
2023-04-02T17:11:01.846Z,1.98
2023-04-02T17:13:37.426Z,2.08
2023-04-02T17:16:24.117Z,2.33
2023-04-02T17:18:59.738Z,2.05
2023-04-02T17:21:28.416Z,2.40
2023-04-02T17:24:00.712Z,2.05
2023-04-02T17:26:31.215Z,2.13
2023-04-02T17:29:00.565Z,1.73
2023-04-02T17:31:34.011Z,2.22
2023-04-02T17:36:42.258Z,1.77
2023-04-02T17:41:50.946Z,2.13
2023-04-02T17:44:42.411Z,1.88
2023-04-02T17:47:33.916Z,1.92
2023-04-02T17:50:23.338Z,2.15
2023-04-02T17:52:53.243Z,2.00
2023-04-02T17:55:32.178Z,1.90
2023-04-02T17:58:51.228Z,2.08
2023-04-02T18:01:37.111Z,2.15
2023-04-02T18:04:24.405Z,1.80
2023-04-02T18:07:03.423Z,1.80
2023-04-02T18:09:47.248Z,2.47
2023-04-02T18:12:23.217Z,2.33
2023-04-02T18:15:22.986Z,2.10
2023-04-02T18:18:25.331Z,2.40
2023-04-02T18:21:04.968Z,2.40
2023-04-02T18:23:59.671Z,2.30
2023-04-02T18:26:39.223Z,2.30
2023-04-02T18:29:22.754Z,2.85
2023-04-02T18:32:33.718Z,2.53
2023-04-02T18:35:31.574Z,2.70
2023-04-02T18:38:17.140Z,2.67
2023-04-02T18:40:53.204Z,2.45
2023-04-02T18:43:34.382Z,2.70
2023-04-02T18:46:19.916Z,3.00
2023-04-02T18:48:59.066Z,2.97
2023-04-02T18:51:28.330Z,3.28
2023-04-02T18:54:14.444Z,3.53
2023-04-02T18:56:42.778Z,2.92
2023-04-02T18:59:12.279Z,3.10
2023-04-02T19:01:44.568Z,2.90
2023-04-02T19:04:17.739Z,2.80
2023-04-02T19:06:49.012Z,3.22
2023-04-02T19:09:23.852Z,2.92
2023-04-02T19:11:53.115Z,2.55
2023-04-02T19:14:23.645Z,2.80
2023-04-02T19:16:54.734Z,2.80
2023-04-02T19:19:28.310Z,2.47
2023-04-02T19:22:13.580Z,2.92
2023-04-02T19:25:08.983Z,2.88
2023-04-02T19:28:13.311Z,2.65
2023-04-02T19:31:17.451Z,2.47
2023-04-02T19:33:56.716Z,2.47
2023-04-02T19:36:58.846Z,2.67
2023-04-02T19:39:47.086Z,2.95
2023-04-02T19:42:33.297Z,3.35
2023-04-02T19:45:00.825Z,3.60
2023-04-02T19:47:27.459Z,2.88
2023-04-02T19:49:55.745Z,3.10
2023-04-02T19:52:22.573Z,2.88
2023-04-02T19:54:49.451Z,2.85
2023-04-02T19:57:17.668Z,3.10
2023-04-02T19:59:44.418Z,3.40
2023-04-02T20:02:11.213Z,2.83
2023-04-02T20:04:38.036Z,3.97
2023-04-02T20:07:05.138Z,11.30
2023-04-02T20:09:32.213Z,4.28
2023-04-02T20:11:58.918Z,4.70
2023-04-02T20:14:25.685Z,3.13
2023-04-02T20:16:52.553Z,3.40
2023-04-02T20:19:20.683Z,4.13
2023-04-02T20:21:47.693Z,3.40
2023-04-02T20:24:14.481Z,3.38
2023-04-02T20:26:41.130Z,3.65
2023-04-02T20:29:07.994Z,4.00
2023-04-02T20:31:34.761Z,3.97
2023-04-02T20:34:03.823Z,3.90
2023-04-02T20:36:31.154Z,4.00
2023-04-02T20:38:58.674Z,4.20
2023-04-02T20:41:26.147Z,4.80
2023-04-02T20:43:53.724Z,5.82
2023-04-02T20:46:20.782Z,5.70
2023-04-02T20:48:47.558Z,5.65
2023-04-02T20:51:15.638Z,5.22
2023-04-02T20:53:43.173Z,5.40
2023-04-02T20:56:12.559Z,5.68
2023-04-02T20:58:40.363Z,6.03
2023-04-02T21:01:11.969Z,5.80
2023-04-02T21:03:40.056Z,5.93
2023-04-02T21:06:13.242Z,5.20
2023-04-02T21:08:39.904Z,4.93
2023-04-02T21:11:06.895Z,4.80
2023-04-02T21:13:38.351Z,4.53
2023-04-02T21:16:12.302Z,4.88
2023-04-02T21:18:39.098Z,5.13
2023-04-02T21:21:06.456Z,5.25
2023-04-02T21:23:34.164Z,4.95
2023-04-02T21:26:04.363Z,4.50
2023-04-02T21:28:31.278Z,4.72
2023-04-02T21:31:11.929Z,4.35
2023-04-02T21:33:41.489Z,5.63
2023-04-02T21:36:11.294Z,5.97
2023-04-02T21:38:52.002Z,6.60
2023-04-02T21:41:24.945Z,5.68
2023-04-02T21:43:54.514Z,5.30
2023-04-02T21:46:28.062Z,5.38
2023-04-02T21:48:57.114Z,5.43
2023-04-02T21:51:26.275Z,4.20
2023-04-02T21:53:56.344Z,4.60
2023-04-02T21:56:26.353Z,4.38
2023-04-02T21:58:53.104Z,5.07
2023-04-02T22:01:27.249Z,4.57
2023-04-02T22:03:59.915Z,4.60
2023-04-02T22:06:28.866Z,4.50
2023-04-02T22:09:01.606Z,4.38
2023-04-02T22:11:32.770Z,5.07
2023-04-02T22:14:00.197Z,5.22
2023-04-02T22:16:29.833Z,6.13
2023-04-02T22:18:58.577Z,5.10
2023-04-02T22:21:25.889Z,4.32
2023-04-02T22:23:52.936Z,5.40
2023-04-02T22:26:20.805Z,4.82
2023-04-02T22:28:47.869Z,5.53
2023-04-02T22:31:27.556Z,4.70
2023-04-02T22:33:55.656Z,6.60
2023-04-02T22:36:23.195Z,6.03
2023-04-02T22:38:50.544Z,7.13
2023-04-02T22:41:25.474Z,6.43
2023-04-02T22:43:52.527Z,6.78
2023-04-02T22:46:20.055Z,4.97
2023-04-02T22:48:49.798Z,6.25
2023-04-02T22:51:18.351Z,6.38
2023-04-02T22:53:45.838Z,5.57
2023-04-02T22:56:14.958Z,5.30
2023-04-02T22:58:42.037Z,4.88
2023-04-02T23:01:10.181Z,4.47
2023-04-02T23:03:36.952Z,4.55
2023-04-02T23:06:07.374Z,4.50
2023-04-02T23:08:36.187Z,4.53
2023-04-02T23:11:06.158Z,4.45
2023-04-02T23:13:33.680Z,4.70
2023-04-02T23:16:02.300Z,4.90
2023-04-02T23:18:31.608Z,4.40
2023-04-02T23:20:58.483Z,4.90
2023-04-02T23:23:26.254Z,4.45
2023-04-02T23:26:24.680Z,4.55
2023-04-02T23:28:51.455Z,5.50
2023-04-02T23:31:21.359Z,4.72
2023-04-02T23:33:48.502Z,4.50
2023-04-02T23:36:22.880Z,4.53
2023-04-02T23:38:55.431Z,4.32
2023-04-02T23:41:24.045Z,4.53
2023-04-02T23:43:51.099Z,4.13
2023-04-02T23:46:17.873Z,4.03
2023-04-02T23:48:45.859Z,4.97
2023-04-02T23:51:13.706Z,4.55
2023-04-02T23:53:40.523Z,4.18
2023-04-02T23:56:07.439Z,4.97
2023-04-02T23:58:34.200Z,4.80
